Stanchfield, Minnesota
Current Conditions -  °F | °C
As of 7:36 PM on Monday 24 Nov 2014 (Local Time) from KCBG Reporting Station
Light Snow Light Snow  
Wind Chill:   Ceiling: 2300
Heat Index: 19°   Visibility: 10mi
Dew Point: 10°   Wind: 12mph
Humidity: 68%   Direction: 310°NW
Pressure: 29.77"   Gusts: 21mph
Location:  45.67°N, 93.18°W
Report Text: KCBG 250136Z AUTO 31010G18KT 10SM -SN OVC023 M07/M12 A2977 RMK AO2
Loading
Personal Weather Stations






























Interactive Weather Map New forecast layout! Learn more

10-Day Weather Forecast

Advertisements
Track Severe Weather on mobile